createdAt,value
2023-04-22T00:00:14.295Z,23.70
2023-04-22T00:02:41.532Z,22.50
2023-04-22T00:07:42.454Z,27.80
2023-04-22T00:10:12.099Z,32.60
2023-04-22T00:12:39.509Z,41.20
2023-04-22T00:15:07.294Z,37.60
2023-04-22T00:17:34.537Z,56.50
2023-04-22T00:20:01.540Z,38.30
2023-04-22T00:22:28.456Z,47.60
2023-04-22T00:24:55.581Z,33.80
2023-04-22T00:27:22.611Z,42.00
2023-04-22T00:29:49.379Z,37.30
2023-04-22T00:32:16.124Z,38.20
2023-04-22T00:34:42.837Z,30.40
2023-04-22T00:37:09.720Z,38.50
2023-04-22T00:39:39.181Z,32.50
2023-04-22T00:42:07.269Z,31.00
2023-04-22T00:44:35.458Z,43.90
2023-04-22T00:47:02.297Z,25.10
2023-04-22T00:49:29.122Z,40.20
2023-04-22T00:51:56.032Z,46.60
2023-04-22T00:54:22.809Z,47.70
2023-04-22T00:56:49.596Z,48.40
2023-04-22T00:59:16.556Z,42.70
2023-04-22T01:01:43.542Z,79.30
2023-04-22T01:04:12.150Z,43.40
2023-04-22T01:06:40.580Z,35.60
2023-04-22T01:09:07.484Z,50.20
2023-04-22T01:11:35.602Z,29.00
2023-04-22T01:14:02.704Z,26.30
2023-04-22T01:16:30.759Z,31.90
2023-04-22T01:18:57.525Z,50.30
2023-04-22T01:21:24.717Z,41.10
2023-04-22T01:23:51.621Z,31.80
2023-04-22T01:26:18.354Z,39.90
2023-04-22T01:28:45.198Z,36.90
2023-04-22T01:31:12.113Z,46.00
2023-04-22T01:33:38.990Z,22.80
2023-04-22T01:36:06.038Z,25.10
2023-04-22T01:38:33.863Z,21.90
2023-04-22T01:41:02.033Z,18.50
2023-04-22T01:43:30.313Z,31.50
2023-04-22T01:45:57.305Z,19.70
2023-04-22T01:48:24.118Z,11.90
2023-04-22T01:50:50.905Z,12.00
2023-04-22T01:53:17.629Z,16.90
2023-04-22T01:55:44.800Z,12.20
2023-04-22T01:58:13.158Z,10.10
2023-04-22T02:00:40.883Z,13.10
2023-04-22T02:03:07.799Z,22.60
2023-04-22T02:05:38.984Z,68.00
2023-04-22T02:08:06.035Z,102.60
2023-04-22T02:10:32.772Z,89.20
2023-04-22T02:13:00.169Z,44.00
2023-04-22T02:15:26.897Z,21.70
2023-04-22T02:17:54.258Z,19.70
2023-04-22T02:20:21.066Z,32.90
2023-04-22T02:22:47.927Z,25.90
2023-04-22T02:25:14.697Z,30.80
2023-04-22T02:27:42.422Z,19.20
2023-04-22T02:30:09.587Z,33.40
2023-04-22T02:32:38.347Z,16.00
2023-04-22T02:35:05.880Z,17.70
2023-04-22T02:37:33.432Z,19.30
2023-04-22T02:40:00.213Z,25.40
2023-04-22T02:42:27.164Z,22.40
2023-04-22T02:44:55.267Z,24.00
2023-04-22T02:49:50.232Z,30.60
2023-04-22T02:52:17.533Z,27.60
2023-04-22T02:54:44.283Z,33.20
2023-04-22T02:57:11.052Z,65.80
2023-04-22T02:59:38.108Z,28.10
2023-04-22T03:02:06.842Z,15.10
2023-04-22T03:05:03.546Z,16.80
2023-04-22T03:07:30.660Z,17.50
2023-04-22T03:09:57.705Z,13.80
2023-04-22T03:12:24.567Z,14.20
2023-04-22T03:14:52.186Z,15.50
2023-04-22T03:17:20.053Z,16.70
2023-04-22T03:19:47.462Z,19.60
2023-04-22T03:22:14.357Z,16.70
2023-04-22T03:24:41.198Z,9.90
2023-04-22T03:27:11.834Z,9.20
2023-04-22T03:29:39.729Z,19.80
2023-04-22T03:32:06.892Z,16.20
2023-04-22T03:34:37.066Z,22.90
2023-04-22T03:37:05.449Z,13.70
2023-04-22T03:39:52.448Z,16.90
2023-04-22T03:42:19.328Z,16.20
2023-04-22T03:44:46.170Z,23.90
2023-04-22T03:47:14.156Z,30.70
2023-04-22T03:49:45.872Z,57.10
2023-04-22T03:52:12.965Z,67.50
2023-04-22T03:54:43.538Z,57.50
2023-04-22T03:57:10.433Z,50.70
2023-04-22T03:59:38.815Z,50.40
2023-04-22T04:02:07.128Z,45.40
2023-04-22T04:04:34.458Z,57.20
2023-04-22T04:07:01.641Z,43.50
2023-04-22T04:09:28.603Z,30.30
2023-04-22T04:11:56.254Z,20.90
2023-04-22T04:14:23.073Z,18.70
2023-04-22T04:16:52.040Z,12.30
2023-04-22T04:19:30.167Z,10.80
2023-04-22T04:21:57.048Z,12.70
2023-04-22T04:24:25.319Z,14.00
2023-04-22T04:26:57.455Z,13.10
2023-04-22T04:29:29.238Z,17.00
2023-04-22T04:32:04.190Z,11.50
2023-04-22T04:34:33.880Z,13.60
2023-04-22T04:37:02.256Z,12.50
2023-04-22T04:39:35.818Z,12.50
2023-04-22T04:42:03.431Z,11.40
2023-04-22T04:44:32.051Z,16.30
2023-04-22T04:46:59.458Z,16.10
2023-04-22T04:49:30.070Z,14.50
2023-04-22T04:51:58.335Z,12.80
2023-04-22T04:54:26.047Z,11.00
2023-04-22T04:56:52.806Z,14.70
2023-04-22T04:59:19.656Z,11.70
2023-04-22T05:01:47.822Z,11.30
2023-04-22T05:04:14.989Z,10.80
2023-04-22T05:06:43.036Z,12.50
2023-04-22T05:09:10.027Z,11.60
2023-04-22T05:11:36.814Z,12.30
2023-04-22T05:14:09.187Z,11.50
2023-04-22T05:16:39.166Z,8.50
2023-04-22T05:19:07.949Z,8.10
2023-04-22T05:21:35.484Z,9.00
2023-04-22T05:24:02.266Z,8.00
2023-04-22T05:26:29.278Z,17.50
2023-04-22T05:28:56.292Z,6.80
2023-04-22T05:31:23.170Z,11.50
2023-04-22T05:33:50.406Z,10.40
2023-04-22T05:36:17.412Z,10.70
2023-04-22T05:38:45.555Z,8.30
2023-04-22T05:41:12.390Z,11.00
2023-04-22T05:43:39.298Z,17.00
2023-04-22T05:46:09.505Z,9.10
2023-04-22T05:48:37.981Z,11.00
2023-04-22T05:51:07.891Z,10.40
2023-04-22T05:53:35.544Z,9.50
2023-04-22T05:56:02.627Z,9.40
2023-04-22T05:58:30.172Z,11.80
2023-04-22T06:01:01.560Z,11.80
2023-04-22T06:04:05.681Z,7.70
2023-04-22T06:06:33.547Z,9.20
2023-04-22T06:09:00.359Z,12.30
2023-04-22T06:11:27.817Z,9.70
2023-04-22T06:13:54.713Z,19.20
2023-04-22T06:16:21.817Z,11.10
2023-04-22T06:18:48.593Z,9.30
2023-04-22T06:21:15.482Z,10.80
2023-04-22T06:23:42.316Z,11.20
2023-04-22T06:26:09.114Z,10.70
2023-04-22T06:28:36.494Z,10.10
2023-04-22T06:31:07.095Z,8.20
2023-04-22T06:33:33.928Z,8.90
2023-04-22T06:36:04.428Z,9.40
2023-04-22T06:38:31.379Z,13.60
2023-04-22T06:41:27.396Z,11.30
2023-04-22T06:43:58.025Z,10.90
2023-04-22T06:46:50.152Z,13.80
2023-04-22T06:49:37.990Z,13.20
2023-04-22T06:52:19.514Z,11.40
2023-04-22T06:54:46.720Z,15.50
2023-04-22T06:57:13.752Z,11.90
2023-04-22T06:59:40.874Z,11.60
2023-04-22T07:02:08.133Z,15.30
2023-04-22T07:04:36.964Z,9.40
2023-04-22T07:07:04.677Z,14.90
2023-04-22T07:09:33.242Z,13.30
2023-04-22T07:12:00.677Z,11.10
2023-04-22T07:14:31.750Z,14.50
2023-04-22T07:16:59.396Z,10.80
2023-04-22T07:19:26.448Z,12.30
2023-04-22T07:21:53.583Z,13.70
2023-04-22T07:24:20.374Z,10.20
2023-04-22T07:26:47.081Z,12.30
2023-04-22T07:29:13.810Z,12.30
2023-04-22T07:31:40.617Z,11.70
2023-04-22T07:34:08.621Z,15.20
2023-04-22T07:39:02.105Z,17.50
2023-04-22T07:41:28.994Z,11.10
2023-04-22T07:43:56.003Z,10.30
2023-04-22T07:46:23.188Z,10.20
2023-04-22T07:48:50.232Z,12.40
2023-04-22T07:51:16.959Z,10.50
2023-04-22T07:53:44.157Z,12.50
2023-04-22T07:56:10.928Z,10.40
2023-04-22T07:58:37.816Z,12.70
2023-04-22T08:01:04.704Z,16.60
2023-04-22T08:03:32.202Z,10.10
2023-04-22T08:05:59.466Z,9.50
2023-04-22T08:08:26.236Z,8.90
2023-04-22T08:10:53.022Z,10.80
2023-04-22T08:13:20.052Z,8.90
2023-04-22T08:15:46.822Z,14.70
2023-04-22T08:18:13.557Z,8.50
2023-04-22T08:20:40.286Z,9.20
2023-04-22T08:23:07.119Z,12.60
2023-04-22T08:25:34.187Z,10.30
2023-04-22T08:28:00.994Z,10.50
2023-04-22T08:30:27.770Z,8.70
2023-04-22T08:32:54.537Z,10.20
2023-04-22T08:35:21.294Z,12.60
2023-04-22T08:37:48.073Z,8.40
2023-04-22T08:40:15.005Z,5.30
2023-04-22T08:42:42.074Z,5.50
2023-04-22T08:45:09.164Z,8.90
2023-04-22T08:47:37.895Z,7.50
2023-04-22T08:50:05.837Z,16.70
2023-04-22T08:52:33.146Z,7.60
2023-04-22T08:55:00.255Z,6.60
2023-04-22T08:57:27.145Z,5.60
2023-04-22T08:59:55.694Z,10.80
2023-04-22T09:02:23.609Z,8.90
2023-04-22T09:07:25.233Z,5.20
2023-04-22T09:09:53.295Z,4.90
2023-04-22T09:12:20.063Z,11.70
2023-04-22T09:14:46.953Z,6.40
2023-04-22T09:17:18.008Z,3.90
2023-04-22T09:19:45.233Z,3.60
2023-04-22T09:22:14.230Z,6.50
2023-04-22T09:24:43.944Z,3.00
2023-04-22T09:27:10.735Z,5.30
2023-04-22T09:29:37.831Z,8.60
2023-04-22T09:32:11.289Z,3.10
2023-04-22T09:34:51.733Z,3.70
2023-04-22T09:37:36.054Z,5.30
2023-04-22T09:40:08.524Z,8.80
2023-04-22T09:42:35.335Z,6.50
2023-04-22T09:45:02.375Z,5.20
2023-04-22T09:47:35.548Z,7.70
2023-04-22T09:50:03.810Z,5.10
2023-04-22T09:52:31.457Z,4.40
2023-04-22T09:54:58.232Z,6.40
2023-04-22T09:57:25.029Z,6.40
2023-04-22T09:59:52.457Z,7.20
2023-04-22T10:02:19.407Z,4.10
2023-04-22T10:04:47.376Z,9.10
2023-04-22T10:07:14.729Z,7.40
2023-04-22T10:09:41.718Z,5.30
2023-04-22T10:12:09.285Z,11.40
2023-04-22T10:14:36.499Z,4.90
2023-04-22T10:17:04.352Z,5.30
2023-04-22T10:19:33.458Z,7.60
2023-04-22T10:22:02.130Z,4.80
2023-04-22T10:24:29.839Z,5.00
2023-04-22T10:26:57.589Z,7.10
2023-04-22T10:29:25.794Z,3.90
2023-04-22T10:32:03.652Z,9.10
2023-04-22T10:34:34.477Z,9.90
2023-04-22T10:37:06.257Z,6.90
2023-04-22T10:39:33.295Z,6.80
2023-04-22T10:42:05.040Z,8.80
2023-04-22T10:44:51.261Z,6.50
2023-04-22T10:47:34.733Z,5.40
2023-04-22T10:50:11.753Z,4.10
2023-04-22T10:52:39.425Z,5.20
2023-04-22T10:55:06.338Z,6.00
2023-04-22T10:57:57.763Z,5.80
2023-04-22T11:00:35.366Z,19.40
2023-04-22T11:03:05.702Z,4.10
2023-04-22T11:05:33.630Z,13.10
2023-04-22T11:08:20.089Z,8.10
2023-04-22T11:10:50.664Z,4.20
2023-04-22T11:13:18.950Z,6.00
2023-04-22T11:15:50.405Z,7.60
2023-04-22T11:18:22.752Z,4.10
2023-04-22T11:20:50.130Z,5.80
2023-04-22T11:23:26.039Z,6.20
2023-04-22T11:26:00.336Z,5.00
2023-04-22T11:28:27.572Z,4.60
2023-04-22T11:31:09.290Z,6.60
2023-04-22T11:33:37.833Z,4.30
2023-04-22T11:36:05.207Z,7.90
2023-04-22T11:38:32.737Z,7.30
2023-04-22T11:40:59.591Z,8.80
2023-04-22T11:43:30.439Z,11.10
2023-04-22T11:45:57.618Z,9.80
2023-04-22T11:48:24.616Z,6.60
2023-04-22T11:51:11.183Z,9.20
2023-04-22T11:53:39.579Z,5.70
2023-04-22T11:56:07.191Z,4.10
2023-04-22T11:58:37.141Z,5.60
2023-04-22T12:01:03.957Z,6.80
2023-04-22T12:03:33.491Z,5.30
2023-04-22T12:06:02.489Z,3.80
2023-04-22T12:08:35.004Z,5.20
2023-04-22T12:11:03.555Z,3.80
2023-04-22T12:13:32.648Z,3.70
2023-04-22T12:16:19.967Z,4.90
2023-04-22T12:18:47.010Z,3.80
2023-04-22T12:21:14.740Z,11.30
2023-04-22T12:23:42.828Z,5.20
2023-04-22T12:26:09.866Z,4.40
2023-04-22T12:28:37.105Z,5.20
2023-04-22T12:31:04.296Z,6.10
2023-04-22T12:33:31.601Z,3.70
2023-04-22T12:35:58.747Z,4.80
2023-04-22T12:38:26.323Z,5.70
2023-04-22T12:40:54.204Z,5.00
2023-04-22T12:45:48.054Z,3.50
2023-04-22T12:48:16.751Z,7.00
2023-04-22T12:50:43.655Z,7.30
2023-04-22T12:53:10.372Z,7.10
2023-04-22T12:55:37.282Z,4.70
2023-04-22T12:58:04.758Z,6.80
2023-04-22T13:00:31.825Z,4.00
2023-04-22T13:02:58.778Z,3.90
2023-04-22T13:05:25.719Z,4.80
2023-04-22T13:10:27.532Z,3.60
2023-04-22T13:12:58.466Z,4.70
2023-04-22T13:15:31.756Z,5.80
2023-04-22T13:17:59.118Z,4.90
2023-04-22T13:20:25.928Z,5.10
2023-04-22T13:22:53.560Z,5.70
2023-04-22T13:25:20.553Z,3.80
2023-04-22T13:27:47.530Z,5.00
2023-04-22T13:30:14.493Z,6.10
2023-04-22T13:32:41.836Z,3.70
2023-04-22T13:35:09.062Z,4.10
2023-04-22T13:37:36.252Z,10.30
2023-04-22T13:40:05.591Z,7.70
2023-04-22T13:42:32.702Z,3.00
2023-04-22T13:45:01.052Z,3.90
2023-04-22T13:47:28.282Z,9.00
2023-04-22T13:49:55.055Z,6.00
2023-04-22T13:52:21.820Z,3.40
2023-04-22T13:54:48.671Z,3.50
2023-04-22T13:57:15.401Z,5.80
2023-04-22T13:59:42.404Z,5.00
2023-04-22T14:02:09.541Z,4.90
2023-04-22T14:04:36.295Z,4.30
2023-04-22T14:07:03.449Z,4.60
2023-04-22T14:09:30.988Z,2.90
2023-04-22T14:11:58.077Z,3.00
2023-04-22T14:14:25.269Z,1.60
2023-04-22T14:16:52.247Z,2.70
2023-04-22T14:19:19.379Z,5.10
2023-04-22T14:21:46.586Z,2.20
2023-04-22T14:24:13.528Z,4.90
2023-04-22T14:26:40.639Z,6.40
2023-04-22T14:29:08.238Z,5.20
2023-04-22T14:31:35.056Z,3.90
2023-04-22T14:34:01.788Z,7.50
2023-04-22T14:36:29.420Z,2.00
2023-04-22T14:38:56.244Z,2.70
2023-04-22T14:41:23.327Z,2.90
2023-04-22T14:43:50.319Z,10.50
2023-04-22T14:46:17.074Z,6.60
2023-04-22T14:48:44.219Z,8.70
2023-04-22T14:51:11.070Z,9.70
2023-04-22T14:53:37.905Z,20.60
2023-04-22T14:56:04.874Z,5.90
2023-04-22T14:58:31.991Z,5.50
2023-04-22T15:00:59.364Z,13.20
2023-04-22T15:03:26.735Z,7.40
2023-04-22T15:05:54.636Z,1.70
2023-04-22T15:08:24.595Z,8.50
2023-04-22T15:10:51.648Z,1.80
2023-04-22T15:13:21.267Z,8.80
2023-04-22T15:15:48.028Z,5.30
2023-04-22T15:18:14.838Z,12.70
2023-04-22T15:20:41.723Z,5.80
2023-04-22T15:23:08.525Z,2.50
2023-04-22T15:25:35.604Z,3.10
2023-04-22T15:28:02.840Z,3.90
2023-04-22T15:30:29.966Z,3.70
2023-04-22T15:32:56.912Z,5.00
2023-04-22T15:35:24.097Z,3.10
2023-04-22T15:37:52.138Z,5.60
2023-04-22T15:40:19.243Z,4.70
2023-04-22T15:42:46.029Z,4.70
2023-04-22T15:45:12.894Z,7.20
2023-04-22T15:47:40.519Z,6.60
2023-04-22T15:50:08.309Z,9.10
2023-04-22T15:52:36.757Z,8.10
2023-04-22T15:55:07.213Z,4.40
2023-04-22T15:57:34.505Z,4.30
2023-04-22T16:00:10.858Z,7.90
2023-04-22T16:02:42.976Z,7.10
2023-04-22T16:05:11.075Z,6.70
2023-04-22T16:07:39.628Z,11.80
2023-04-22T16:10:07.409Z,9.30
2023-04-22T16:12:34.611Z,8.00
2023-04-22T16:15:01.629Z,11.80
2023-04-22T16:17:29.253Z,7.30
2023-04-22T16:19:56.036Z,7.10
2023-04-22T16:22:22.819Z,10.30
2023-04-22T16:24:50.026Z,12.30
2023-04-22T16:27:18.568Z,13.10
2023-04-22T16:29:45.544Z,13.30
2023-04-22T16:32:12.337Z,17.00
2023-04-22T16:34:39.166Z,20.90
2023-04-22T16:37:06.338Z,31.70
2023-04-22T16:39:33.425Z,24.90
2023-04-22T16:42:01.769Z,31.80
2023-04-22T16:44:28.762Z,27.00
2023-04-22T16:46:55.555Z,15.80
2023-04-22T16:49:22.318Z,18.10
2023-04-22T16:51:49.299Z,13.30
2023-04-22T16:54:16.148Z,12.40
2023-04-22T16:56:43.142Z,14.90
2023-04-22T16:59:09.897Z,14.60
2023-04-22T17:01:36.843Z,18.30
2023-04-22T17:04:03.717Z,19.70
2023-04-22T17:06:31.954Z,12.80
2023-04-22T17:08:59.388Z,18.30
2023-04-22T17:11:26.133Z,20.10
2023-04-22T17:13:53.084Z,12.80
2023-04-22T17:16:20.320Z,16.70
2023-04-22T17:18:47.331Z,25.20
2023-04-22T17:21:15.858Z,24.20
2023-04-22T17:26:09.372Z,19.70
2023-04-22T17:28:36.088Z,24.50
2023-04-22T17:31:03.576Z,28.50
2023-04-22T17:33:30.774Z,20.40
2023-04-22T17:35:57.546Z,17.10
2023-04-22T17:38:24.376Z,23.90
2023-04-22T17:40:51.107Z,18.40
2023-04-22T17:43:18.543Z,17.80
2023-04-22T17:45:45.382Z,19.80
2023-04-22T17:48:12.572Z,16.70
2023-04-22T17:50:39.344Z,15.30
2023-04-22T17:53:06.255Z,21.80
2023-04-22T17:55:34.640Z,23.50
2023-04-22T17:58:02.479Z,17.90
2023-04-22T18:00:29.912Z,21.60
2023-04-22T18:02:56.910Z,35.40
2023-04-22T18:05:23.991Z,62.00
2023-04-22T18:07:50.936Z,86.30
2023-04-22T18:10:17.846Z,72.40
2023-04-22T18:12:46.453Z,152.60
2023-04-22T18:15:13.180Z,311.90
2023-04-22T18:17:41.394Z,192.40
2023-04-22T18:20:17.160Z,75.60
2023-04-22T18:22:49.101Z,56.40
2023-04-22T18:25:15.808Z,46.20
2023-04-22T18:27:42.944Z,34.00
2023-04-22T18:30:10.054Z,16.80
2023-04-22T18:32:37.503Z,23.20
2023-04-22T18:35:04.765Z,12.20
2023-04-22T18:37:33.758Z,18.70
2023-04-22T18:40:00.661Z,16.70
2023-04-22T18:42:27.463Z,18.30
2023-04-22T18:44:54.252Z,27.40
2023-04-22T18:47:21.198Z,20.60
2023-04-22T18:49:47.935Z,13.90
2023-04-22T18:52:16.533Z,16.40
2023-04-22T18:57:11.580Z,28.20
2023-04-22T18:59:39.127Z,22.60
2023-04-22T19:02:06.046Z,28.00
2023-04-22T19:04:33.297Z,20.90
2023-04-22T19:07:00.348Z,34.60
2023-04-22T19:09:27.083Z,25.90
2023-04-22T19:11:53.985Z,22.10
2023-04-22T19:14:21.512Z,21.50
2023-04-22T19:16:48.248Z,24.70
2023-04-22T19:19:15.251Z,21.90
2023-04-22T19:21:42.111Z,25.40
2023-04-22T19:24:09.473Z,58.10
2023-04-22T19:26:36.239Z,55.60
2023-04-22T19:29:02.967Z,60.10
2023-04-22T19:31:30.214Z,81.80
2023-04-22T19:33:57.391Z,72.40
2023-04-22T19:36:24.137Z,62.60
2023-04-22T19:38:51.075Z,321.20
2023-04-22T19:41:18.039Z,216.70
2023-04-22T19:43:45.470Z,207.40
2023-04-22T19:46:12.216Z,217.10
2023-04-22T19:48:39.298Z,234.60
2023-04-22T19:51:06.244Z,107.00
2023-04-22T19:53:33.133Z,125.30
2023-04-22T19:55:59.919Z,171.60
2023-04-22T19:58:27.845Z,216.80
2023-04-22T20:00:55.022Z,212.20
2023-04-22T20:03:22.181Z,199.50
2023-04-22T20:05:49.686Z,225.50
2023-04-22T20:08:19.446Z,174.80
2023-04-22T20:10:48.634Z,163.40
2023-04-22T20:13:16.535Z,168.40
2023-04-22T20:15:43.927Z,154.00
2023-04-22T20:18:10.749Z,166.20
2023-04-22T20:20:45.794Z,175.50
2023-04-22T20:23:12.593Z,220.30
2023-04-22T20:25:41.720Z,167.70
2023-04-22T20:28:10.089Z,158.10
2023-04-22T20:30:37.144Z,142.90
2023-04-22T20:33:04.451Z,137.80
2023-04-22T20:35:31.647Z,217.20
2023-04-22T20:37:58.976Z,271.60
2023-04-22T20:40:25.851Z,176.00
2023-04-22T20:43:14.489Z,199.90
2023-04-22T20:45:41.289Z,177.80
2023-04-22T20:48:08.340Z,154.60
2023-04-22T20:50:35.522Z,146.60
2023-04-22T20:53:03.113Z,132.30
2023-04-22T20:55:30.976Z,99.60
2023-04-22T20:57:58.199Z,114.30
2023-04-22T21:00:24.986Z,106.90
2023-04-22T21:02:51.918Z,95.40
2023-04-22T21:05:19.256Z,107.20
2023-04-22T21:07:46.924Z,85.20
2023-04-22T21:10:14.140Z,96.60
2023-04-22T21:12:41.072Z,88.50
2023-04-22T21:15:08.821Z,82.40
2023-04-22T21:17:35.663Z,80.40
2023-04-22T21:20:03.735Z,78.50
2023-04-22T21:22:30.854Z,78.00
2023-04-22T21:24:57.908Z,82.90
2023-04-22T21:27:25.220Z,79.80
2023-04-22T21:29:52.412Z,78.00
2023-04-22T21:32:19.880Z,67.60
2023-04-22T21:34:46.814Z,47.00
2023-04-22T21:37:13.565Z,54.00
2023-04-22T21:39:40.410Z,61.40
2023-04-22T21:42:07.380Z,68.70
2023-04-22T21:44:35.679Z,56.60
2023-04-22T21:47:02.927Z,43.50
2023-04-22T21:49:29.741Z,34.30
2023-04-22T21:51:56.563Z,38.00
2023-04-22T21:54:23.304Z,37.10
2023-04-22T21:56:50.181Z,33.70
2023-04-22T21:59:16.907Z,43.70
2023-04-22T22:01:43.708Z,35.30
2023-04-22T22:04:13.122Z,47.30
2023-04-22T22:06:46.017Z,50.50
2023-04-22T22:09:13.924Z,46.90
2023-04-22T22:11:43.684Z,52.30
2023-04-22T22:14:10.426Z,67.00
2023-04-22T22:16:37.794Z,58.20
2023-04-22T22:19:04.812Z,60.30
2023-04-22T22:21:32.331Z,76.40
2023-04-22T22:23:59.068Z,83.70
2023-04-22T22:26:25.920Z,76.00
2023-04-22T22:28:52.838Z,60.70
2023-04-22T22:31:19.608Z,55.50
2023-04-22T22:33:46.416Z,40.70
2023-04-22T22:36:13.165Z,45.70
2023-04-22T22:38:40.055Z,61.90
2023-04-22T22:41:06.794Z,55.50
2023-04-22T22:43:33.923Z,59.80
2023-04-22T22:46:00.705Z,69.60
2023-04-22T22:48:27.906Z,69.80
2023-04-22T22:50:55.905Z,63.80
2023-04-22T22:55:50.190Z,48.00
2023-04-22T22:58:17.018Z,54.10
2023-04-22T23:00:43.767Z,45.80
2023-04-22T23:03:11.144Z,64.20
2023-04-22T23:05:38.419Z,55.30
2023-04-22T23:08:06.320Z,58.20
2023-04-22T23:10:33.196Z,68.60
2023-04-22T23:12:59.955Z,57.20
2023-04-22T23:15:26.751Z,75.70
2023-04-22T23:17:53.546Z,64.80
2023-04-22T23:20:20.747Z,67.00
2023-04-22T23:22:47.570Z,73.10
2023-04-22T23:25:15.384Z,69.50
2023-04-22T23:27:42.262Z,82.10
2023-04-22T23:30:09.317Z,67.70
2023-04-22T23:32:40.967Z,68.10
2023-04-22T23:35:09.722Z,72.20
2023-04-22T23:37:37.180Z,64.70
2023-04-22T23:40:06.783Z,70.80
2023-04-22T23:42:33.625Z,72.00
2023-04-22T23:45:02.217Z,67.00
2023-04-22T23:47:30.904Z,58.70
2023-04-22T23:49:58.234Z,52.60
2023-04-22T23:52:25.358Z,47.60
2023-04-22T23:54:52.425Z,46.50
2023-04-22T23:57:19.728Z,43.80
2023-04-22T23:59:46.693Z,43.40
